Time;durP1;ratioP1;P1;durP2;ratioP2;P2;SDS_P1;SDS_P2;PMS_P1;PMS_P2;Temp;Humidity;BMP_temperature;BMP_pressure;BME280_temperature;BME280_humidity;BME280_pressure;Samples;Min_cycle;Max_cycle;Signal;HPM_P1;HPM_P2
2024/01/14 00:01:55;;;;;;;25.95;10.27;;;2.20;99.90;;;;;;5033105;28;20128;-50
2024/01/14 00:04:21;;;;;;;26.13;11.00;;;2.20;99.90;;;;;;5030040;28;20022;-51
2024/01/14 00:06:47;;;;;;;24.75;9.93;;;2.20;99.90;;;;;;5029989;28;20033;-48
2024/01/14 00:09:13;;;;;;;27.85;10.02;;;2.20;99.90;;;;;;5029904;28;20291;-50
2024/01/14 00:11:39;;;;;;;24.65;9.77;;;2.20;99.90;;;;;;5029758;28;20021;-57
2024/01/14 00:14:05;;;;;;;20.58;9.68;;;2.20;99.90;;;;;;5030215;28;20020;-47
2024/01/14 00:16:40;;;;;;;28.45;10.18;;;2.20;99.90;;;;;;5030264;28;20468;-45
2024/01/14 00:19:06;;;;;;;24.63;9.63;;;2.20;99.90;;;;;;5030544;28;20025;-49
2024/01/14 00:21:32;;;;;;;25.58;10.63;;;2.30;99.90;;;;;;5031029;28;20104;-48
2024/01/14 00:23:58;;;;;;;26.83;10.55;;;2.30;99.90;;;;;;5029978;28;20116;-47
2024/01/14 00:26:27;;;;;;;21.42;8.75;;;2.30;99.90;;;;;;5029643;28;20479;-46
2024/01/14 00:28:57;;;;;;;22.83;9.70;;;2.20;99.90;;;;;;5028989;28;20108;-46
2024/01/14 00:31:22;;;;;;;;;;;2.20;99.90;;;;;;5030378;28;20130;-47
2024/01/14 00:33:49;;;;;;;19.95;8.77;;;2.20;99.90;;;;;;5029494;28;20376;-47
2024/01/14 00:36:18;;;;;;;20.92;9.70;;;2.20;99.90;;;;;;5029735;28;20099;-50
2024/01/14 00:38:44;;;;;;;20.73;9.50;;;2.20;99.90;;;;;;5029590;28;20022;-47
2024/01/14 00:41:11;;;;;;;21.23;8.65;;;2.20;99.90;;;;;;5029766;28;20041;-46
2024/01/14 00:43:37;;;;;;;23.20;10.27;;;2.20;99.90;;;;;;5029570;28;20021;-53
2024/01/14 00:46:03;;;;;;;21.83;8.90;;;2.20;99.90;;;;;;5029647;28;20025;-49
2024/01/14 00:48:31;;;;;;;27.77;10.25;;;2.20;99.90;;;;;;5029798;28;20172;-48
2024/01/14 00:50:57;;;;;;;22.98;9.75;;;2.20;99.90;;;;;;5029529;28;20032;-48
2024/01/14 00:53:23;;;;;;;18.50;8.82;;;2.20;99.90;;;;;;5029721;28;20025;-47
2024/01/14 00:55:49;;;;;;;20.45;8.73;;;2.30;99.90;;;;;;5029312;28;20026;-48
2024/01/14 00:58:15;;;;;;;21.85;8.95;;;2.40;99.90;;;;;;5029623;28;20495;-48
2024/01/14 01:00:41;;;;;;;20.35;8.07;;;2.40;99.90;;;;;;5031621;28;20049;-46
2024/01/14 01:03:07;;;;;;;19.20;7.65;;;2.40;99.90;;;;;;5033152;28;20028;-46
2024/01/14 01:05:32;;;;;;;20.63;8.95;;;2.40;99.90;;;;;;5033171;28;20025;-51
2024/01/14 01:07:58;;;;;;;18.42;7.07;;;2.50;99.90;;;;;;5032967;28;20108;-48
2024/01/14 01:10:24;;;;;;;18.70;7.07;;;2.50;99.90;;;;;;5033025;28;20026;-46
2024/01/14 01:12:49;;;;;;;16.10;7.25;;;2.50;99.90;;;;;;5032948;28;20112;-44
2024/01/14 01:15:15;;;;;;;18.77;8.07;;;2.50;99.90;;;;;;5033086;28;20031;-49
2024/01/14 01:17:41;;;;;;;20.75;7.55;;;2.40;99.90;;;;;;5032822;28;20045;-45
2024/01/14 01:20:10;;;;;;;16.48;6.95;;;2.50;99.90;;;;;;5032795;28;20101;-48
2024/01/14 01:22:36;;;;;;;15.98;6.45;;;2.50;99.90;;;;;;5032588;28;20029;-46
2024/01/14 01:25:02;;;;;;;13.93;6.13;;;2.50;99.90;;;;;;5032740;28;20539;-49
2024/01/14 01:27:29;;;;;;;15.07;7.35;;;2.50;99.90;;;;;;5032758;28;20033;-49
2024/01/14 01:29:56;;;;;;;15.10;6.03;;;2.50;99.90;;;;;;5032697;28;20104;-46
2024/01/14 01:32:21;;;;;;;16.60;7.13;;;2.50;99.90;;;;;;5032763;28;20024;-47
2024/01/14 01:34:47;;;;;;;13.90;6.07;;;2.50;99.90;;;;;;5032578;28;20021;-45
2024/01/14 01:37:13;;;;;;;15.05;7.13;;;2.40;99.90;;;;;;5032337;28;20475;-45
2024/01/14 01:39:39;;;;;;;19.30;7.03;;;2.40;99.90;;;;;;5032608;28;20026;-53
2024/01/14 01:42:05;;;;;;;14.57;6.38;;;2.40;99.90;;;;;;5032320;28;20041;-50
2024/01/14 01:44:30;;;;;;;15.57;6.53;;;2.40;99.90;;;;;;5032571;28;20417;-45
2024/01/14 01:46:57;;;;;;;20.63;7.03;;;2.40;99.90;;;;;;5032394;28;20037;-50
2024/01/14 01:49:23;;;;;;;14.02;6.38;;;2.40;99.90;;;;;;5032334;28;20014;-48
2024/01/14 01:51:50;;;;;;;13.35;5.82;;;2.40;99.90;;;;;;5032196;28;20033;-48
2024/01/14 01:54:20;;;;;;;11.48;5.55;;;2.50;99.90;;;;;;5032442;28;20480;-45
2024/01/14 01:56:45;;;;;;;;;;;2.50;99.90;;;;;;5032775;28;20087;-45
2024/01/14 01:59:12;;;;;;;15.38;6.18;;;2.50;99.90;;;;;;5031937;28;20368;-47
2024/01/14 02:01:38;;;;;;;15.90;5.95;;;2.60;99.90;;;;;;5032009;28;20048;-50
2024/01/14 02:04:07;;;;;;;13.45;5.57;;;2.60;99.90;;;;;;5031959;28;20105;-51
2024/01/14 02:06:33;;;;;;;11.00;5.67;;;2.60;99.90;;;;;;5032293;28;20029;-47
2024/01/14 02:08:59;;;;;;;15.38;6.22;;;2.60;99.90;;;;;;5032004;28;20293;-52
2024/01/14 02:11:25;;;;;;;12.48;5.90;;;2.60;99.90;;;;;;5031288;28;20034;-45
2024/01/14 02:13:51;;;;;;;13.88;5.45;;;2.60;99.90;;;;;;5032355;28;20480;-47
2024/01/14 02:16:16;;;;;;;13.82;6.32;;;2.60;99.90;;;;;;5031727;28;20022;-47
2024/01/14 02:18:42;;;;;;;15.73;6.40;;;2.70;99.90;;;;;;5031710;28;20496;-50
2024/01/14 02:21:22;;;;;;;17.55;6.53;;;2.70;99.90;;;;;;5031599;28;20032;-47
2024/01/14 02:23:53;;;;;;;13.98;6.20;;;2.70;99.90;;;;;;5031806;28;20049;-52
2024/01/14 02:26:18;;;;;;;16.83;6.35;;;2.60;99.90;;;;;;5031567;28;20017;-51
2024/01/14 02:28:44;;;;;;;17.10;6.75;;;2.60;99.90;;;;;;5031574;28;20544;-50
2024/01/14 02:31:11;;;;;;;19.73;6.75;;;2.60;99.90;;;;;;5031521;28;20117;-46
2024/01/14 02:33:36;;;;;;;15.57;6.75;;;2.70;99.90;;;;;;5031517;28;20025;-48
2024/01/14 02:36:02;;;;;;;15.23;6.85;;;2.70;99.90;;;;;;5031615;28;20105;-47
2024/01/14 02:38:28;;;;;;;16.58;7.18;;;2.60;99.90;;;;;;5031490;28;20053;-52
2024/01/14 02:40:54;;;;;;;14.30;6.03;;;2.60;99.90;;;;;;5031135;28;20445;-48
2024/01/14 02:43:19;;;;;;;17.52;8.15;;;2.50;99.90;;;;;;5031291;28;20033;-51
2024/01/14 02:45:45;;;;;;;15.82;7.93;;;2.60;99.90;;;;;;5031091;28;20049;-51
2024/01/14 02:48:11;;;;;;;18.15;7.72;;;2.60;99.90;;;;;;5031293;28;20073;-49
2024/01/14 02:50:36;;;;;;;19.80;8.35;;;2.60;99.90;;;;;;5031141;28;20116;-50
2024/01/14 02:53:02;;;;;;;18.88;8.70;;;2.60;99.90;;;;;;5031146;28;20025;-44
2024/01/14 02:55:28;;;;;;;20.48;7.35;;;2.60;99.90;;;;;;5030852;28;20025;-54
2024/01/14 02:57:55;;;;;;;17.63;7.15;;;2.60;99.90;;;;;;5031181;28;20025;-48
2024/01/14 03:00:21;;;;;;;18.83;8.50;;;2.60;99.90;;;;;;5030940;28;20049;-57
2024/01/14 03:02:46;;;;;;;21.50;7.35;;;2.60;99.90;;;;;;5030687;28;20037;-47
2024/01/14 03:05:12;;;;;;;22.60;8.60;;;2.60;99.90;;;;;;5030895;28;20040;-49
2024/01/14 03:07:38;;;;;;;21.83;7.95;;;2.60;99.90;;;;;;5030794;28;20037;-47
2024/01/14 03:10:04;;;;;;;23.10;10.05;;;2.60;99.90;;;;;;5030554;28;20097;-51
2024/01/14 03:12:29;;;;;;;23.15;9.65;;;2.50;99.90;;;;;;5040245;28;20395;-48
2024/01/14 03:14:55;;;;;;;20.00;9.13;;;2.60;99.90;;;;;;5050534;28;20021;-48
2024/01/14 03:17:20;;;;;;;24.08;10.60;;;2.60;99.90;;;;;;5050475;28;20071;-47
2024/01/14 03:19:46;;;;;;;23.17;10.23;;;2.60;99.90;;;;;;5050701;28;20079;-52
2024/01/14 03:22:13;;;;;;;24.00;10.27;;;2.50;99.90;;;;;;5049837;28;20036;-48
2024/01/14 03:24:39;;;;;;;23.50;10.90;;;2.50;99.90;;;;;;5050391;28;20037;-46
2024/01/14 03:27:04;;;;;;;21.85;9.93;;;2.50;99.90;;;;;;5050049;28;20029;-46
2024/01/14 03:29:30;;;;;;;27.98;10.95;;;2.60;99.90;;;;;;5050315;28;20079;-47
2024/01/14 03:31:56;;;;;;;27.20;11.18;;;2.60;99.90;;;;;;5050575;28;20028;-46
2024/01/14 03:34:21;;;;;;;25.45;11.10;;;2.50;99.90;;;;;;5050636;28;20025;-49
2024/01/14 03:36:47;;;;;;;25.15;11.07;;;2.50;99.90;;;;;;5050166;28;20037;-49
2024/01/14 03:39:13;;;;;;;24.23;10.55;;;2.50;99.90;;;;;;5050363;28;20017;-52
2024/01/14 03:41:38;;;;;;;30.58;11.98;;;2.50;99.90;;;;;;5049882;28;20029;-50
2024/01/14 03:44:04;;;;;;;23.38;9.68;;;2.40;99.90;;;;;;5050240;28;20032;-48
2024/01/14 03:46:30;;;;;;;22.38;10.38;;;2.50;99.90;;;;;;5048943;28;20051;-46
2024/01/14 03:48:55;;;;;;;26.00;10.30;;;2.50;99.90;;;;;;5050159;28;20023;-49
2024/01/14 03:51:21;;;;;;;26.17;10.88;;;2.50;99.90;;;;;;5043529;28;20021;-53
2024/01/14 03:53:47;;;;;;;25.70;11.25;;;2.50;99.90;;;;;;5045093;28;20476;-49
2024/01/14 03:56:12;;;;;;;28.83;11.55;;;2.50;99.90;;;;;;5049923;28;20025;-48
2024/01/14 03:58:39;;;;;;;23.80;9.63;;;2.50;99.90;;;;;;5050061;28;20025;-48
2024/01/14 04:01:04;;;;;;;24.38;9.68;;;2.50;99.90;;;;;;5049844;28;20048;-55
2024/01/14 04:03:30;;;;;;;28.30;10.77;;;2.50;99.90;;;;;;5050027;28;20424;-54
2024/01/14 04:05:56;;;;;;;22.88;9.73;;;2.50;99.90;;;;;;5050106;28;20100;-48
2024/01/14 04:08:21;;;;;;;23.10;10.93;;;2.50;99.90;;;;;;5050043;28;20029;-50
2024/01/14 04:10:48;;;;;;;20.35;9.60;;;2.50;99.90;;;;;;5049710;28;20056;-49
2024/01/14 04:13:14;;;;;;;22.60;9.20;;;2.50;99.90;;;;;;5049814;28;20021;-49
2024/01/14 04:15:39;;;;;;;20.05;8.82;;;2.50;99.90;;;;;;5049903;28;20090;-45
2024/01/14 04:18:05;;;;;;;22.23;9.25;;;2.50;99.90;;;;;;5048578;28;20035;-52
2024/01/14 04:20:31;;;;;;;20.88;9.30;;;2.40;99.90;;;;;;5049688;28;20037;-51
2024/01/14 04:22:56;;;;;;;23.83;10.43;;;2.40;99.90;;;;;;5049756;28;20037;-52
2024/01/14 04:25:22;;;;;;;23.20;9.38;;;2.40;99.90;;;;;;5049662;28;20060;-48
2024/01/14 04:27:47;;;;;;;21.80;10.07;;;2.40;99.90;;;;;;5049600;28;20061;-47
2024/01/14 04:30:13;;;;;;;18.08;8.43;;;2.40;99.90;;;;;;5049884;28;20025;-48
2024/01/14 04:32:39;;;;;;;23.27;9.88;;;2.40;99.90;;;;;;5049893;28;20460;-48
2024/01/14 04:35:06;;;;;;;19.00;8.98;;;2.40;99.90;;;;;;5052933;28;20024;-49
2024/01/14 04:37:32;;;;;;;25.60;9.48;;;2.40;99.90;;;;;;5053894;28;20029;-48
2024/01/14 04:39:57;;;;;;;24.10;8.82;;;2.50;99.90;;;;;;5053388;28;20032;-52
2024/01/14 04:42:23;;;;;;;22.60;9.30;;;2.40;99.90;;;;;;5053571;28;20029;-47
2024/01/14 04:44:49;;;;;;;21.20;9.55;;;2.50;99.90;;;;;;5053314;28;20017;-47
2024/01/14 04:47:14;;;;;;;19.67;9.32;;;2.50;99.90;;;;;;5053566;28;20032;-53
2024/01/14 04:49:40;;;;;;;20.92;9.55;;;2.50;99.90;;;;;;5053580;28;20070;-51
2024/01/14 04:52:06;;;;;;;22.42;9.48;;;2.50;99.90;;;;;;5053406;28;20120;-47
2024/01/14 04:54:31;;;;;;;21.40;8.20;;;2.50;99.90;;;;;;5053550;28;20348;-54
2024/01/14 04:56:57;;;;;;;18.60;9.02;;;2.50;99.90;;;;;;5053122;28;20055;-51
2024/01/14 04:59:23;;;;;;;19.00;8.55;;;2.50;99.90;;;;;;5053072;28;20091;-49
2024/01/14 05:01:49;;;;;;;24.15;9.48;;;2.60;99.90;;;;;;5053218;28;20033;-49
2024/01/14 05:04:15;;;;;;;21.15;10.10;;;2.60;99.90;;;;;;5053208;28;20199;-49
2024/01/14 05:06:40;;;;;;;24.10;9.27;;;2.60;99.90;;;;;;5052010;28;20029;-49
2024/01/14 05:09:07;;;;;;;21.08;9.60;;;2.60;99.90;;;;;;5053108;28;20021;-48
2024/01/14 05:11:33;;;;;;;19.48;8.30;;;2.70;99.90;;;;;;5052820;28;20025;-50
2024/01/14 05:13:58;;;;;;;20.73;9.02;;;2.60;99.90;;;;;;5053027;28;20021;-47
2024/01/14 05:16:24;;;;;;;24.17;10.70;;;2.60;99.90;;;;;;5052983;28;20416;-49
2024/01/14 05:18:50;;;;;;;24.98;9.48;;;2.50;99.90;;;;;;5052960;28;20384;-45
2024/01/14 05:21:16;;;;;;;22.20;9.68;;;2.50;99.90;;;;;;5052827;28;20025;-53
2024/01/14 05:23:43;;;;;;;22.75;9.80;;;2.50;99.90;;;;;;5053122;28;20477;-51
2024/01/14 05:26:09;;;;;;;20.63;9.45;;;2.60;99.90;;;;;;5052657;28;20029;-46
2024/01/14 05:28:35;;;;;;;21.50;9.70;;;2.60;99.90;;;;;;5052826;28;20036;-53
2024/01/14 05:31:00;;;;;;;24.60;11.25;;;2.50;99.90;;;;;;5052845;28;20025;-48
2024/01/14 05:33:26;;;;;;;27.60;10.52;;;2.50;99.90;;;;;;5052710;28;20025;-55
2024/01/14 05:35:52;;;;;;;22.05;9.88;;;2.50;99.90;;;;;;5052879;28;20329;-49
2024/01/14 05:38:17;;;;;;;22.02;9.73;;;2.50;99.90;;;;;;5052603;28;20385;-48
2024/01/14 05:40:43;;;;;;;25.52;11.52;;;2.50;99.90;;;;;;5052608;28;20045;-48
2024/01/14 05:43:09;;;;;;;25.02;9.95;;;2.50;99.90;;;;;;5052625;28;20504;-48
2024/01/14 05:45:34;;;;;;;23.52;11.15;;;2.60;99.90;;;;;;5052084;28;20028;-46
2024/01/14 05:48:00;;;;;;;26.48;10.38;;;2.60;99.90;;;;;;5052737;28;20033;-47
2024/01/14 05:50:26;;;;;;;24.17;10.48;;;2.50;99.90;;;;;;5052566;28;20021;-48
2024/01/14 05:52:51;;;;;;;26.45;10.45;;;2.50;99.90;;;;;;5052317;28;20078;-49
2024/01/14 05:55:17;;;;;;;27.50;10.10;;;2.50;99.90;;;;;;5052026;28;20100;-53
2024/01/14 05:57:43;;;;;;;24.20;10.27;;;2.50;99.90;;;;;;5052335;28;20067;-53
2024/01/14 06:00:09;;;;;;;22.52;9.63;;;2.50;99.90;;;;;;5052014;28;20056;-49
2024/01/14 06:02:35;;;;;;;30.55;11.55;;;2.50;99.90;;;;;;5052185;28;20538;-46
2024/01/14 06:05:00;;;;;;;22.75;10.00;;;2.40;99.90;;;;;;5052204;28;20041;-49
2024/01/14 06:07:26;;;;;;;23.00;10.35;;;2.40;99.90;;;;;;5051981;28;20082;-51
2024/01/14 06:09:52;;;;;;;24.92;9.63;;;2.40;99.90;;;;;;5051895;28;20052;-46
2024/01/14 06:12:17;;;;;;;24.33;9.88;;;2.40;99.90;;;;;;5051925;28;20127;-49
2024/01/14 06:14:43;;;;;;;23.58;10.55;;;2.40;99.90;;;;;;5052129;28;20029;-51
2024/01/14 06:17:08;;;;;;;23.67;10.13;;;2.40;99.90;;;;;;5046414;28;20112;-49
2024/01/14 06:19:34;;;;;;;24.58;10.57;;;2.40;99.90;;;;;;5025267;28;20112;-47
2024/01/14 06:22:00;;;;;;;23.25;10.25;;;2.50;99.90;;;;;;5020561;28;20092;-48
2024/01/14 06:24:26;;;;;;;27.63;11.20;;;2.50;99.90;;;;;;5031743;28;20465;-50
2024/01/14 06:26:52;;;;;;;26.65;10.43;;;2.40;99.90;;;;;;5031716;28;20057;-46
2024/01/14 06:29:18;;;;;;;23.73;10.35;;;2.50;99.90;;;;;;5031750;28;20075;-53
2024/01/14 06:31:48;;;;;;;27.30;9.65;;;2.50;99.90;;;;;;5031454;28;20349;-46
2024/01/14 06:34:13;;;;;;;26.40;10.98;;;2.50;99.90;;;;;;5031493;28;20021;-45
2024/01/14 06:36:39;;;;;;;22.02;9.02;;;2.50;99.90;;;;;;5021899;28;20491;-47
2024/01/14 06:39:08;;;;;;;28.48;11.13;;;2.50;99.90;;;;;;5031550;28;20051;-50
2024/01/14 06:41:34;;;;;;;18.45;9.07;;;2.50;99.90;;;;;;5031240;28;20049;-46
2024/01/14 06:44:00;;;;;;;22.80;10.02;;;2.50;99.90;;;;;;5031675;28;20026;-53
2024/01/14 06:46:25;;;;;;;29.00;11.25;;;2.50;99.90;;;;;;5031458;28;20029;-50
2024/01/14 06:48:51;;;;;;;30.23;11.00;;;2.50;99.90;;;;;;5030830;28;20018;-50
2024/01/14 06:51:17;;;;;;;24.17;10.35;;;2.50;99.90;;;;;;5031284;28;20037;-46
2024/01/14 06:53:42;;;;;;;26.48;10.82;;;2.50;99.90;;;;;;5031101;28;20063;-52
2024/01/14 06:56:08;;;;;;;20.80;10.15;;;2.50;99.90;;;;;;5031483;28;20551;-47
2024/01/14 06:58:34;;;;;;;26.48;10.55;;;2.50;99.90;;;;;;5031324;28;20633;-49
2024/01/14 07:01:01;;;;;;;26.48;10.13;;;2.50;99.90;;;;;;5030945;28;20488;-46
2024/01/14 07:03:27;;;;;;;19.35;9.25;;;2.50;99.90;;;;;;5030995;28;20061;-47
2024/01/14 07:05:53;;;;;;;23.80;10.27;;;2.60;99.90;;;;;;5031157;28;20056;-49
2024/01/14 07:08:18;;;;;;;23.55;10.00;;;2.50;99.90;;;;;;5030919;28;20506;-49
2024/01/14 07:10:44;;;;;;;25.42;10.02;;;2.50;99.90;;;;;;5031101;28;20021;-51
2024/01/14 07:13:09;;;;;;;26.15;10.63;;;2.50;99.90;;;;;;5030837;28;20048;-51
2024/01/14 07:15:35;;;;;;;22.80;9.68;;;2.50;99.90;;;;;;5030681;28;20044;-46
2024/01/14 07:18:02;;;;;;;23.27;9.60;;;2.60;99.90;;;;;;5030759;28;20507;-46
2024/01/14 07:20:28;;;;;;;21.75;10.05;;;2.60;99.90;;;;;;5038818;28;20480;-45
2024/01/14 07:22:53;;;;;;;25.75;10.07;;;2.60;99.90;;;;;;5048730;28;20082;-53
2024/01/14 07:25:19;;;;;;;22.20;9.43;;;2.60;99.90;;;;;;5038242;28;20373;-51
2024/01/14 07:27:45;;;;;;;25.70;10.73;;;2.50;99.90;;;;;;5050578;28;20081;-48
2024/01/14 07:30:11;;;;;;;21.98;9.65;;;2.60;99.90;;;;;;5050391;28;20092;-46
2024/01/14 07:32:36;;;;;;;21.95;8.60;;;2.60;99.90;;;;;;5050618;28;20029;-57
2024/01/14 07:35:03;;;;;;;25.08;9.85;;;2.60;99.90;;;;;;5050346;28;20387;-49
2024/01/14 07:37:33;;;;;;;24.27;10.57;;;2.60;99.90;;;;;;5050384;28;20051;-48
2024/01/14 07:40:00;;;;;;;24.17;10.32;;;2.60;99.90;;;;;;5050481;28;20031;-49
2024/01/14 07:42:26;;;;;;;19.45;9.60;;;2.60;99.90;;;;;;5050354;28;20399;-51
2024/01/14 07:44:52;;;;;;;24.17;10.05;;;2.70;99.90;;;;;;5048882;28;20556;-47
2024/01/14 07:47:17;;;;;;;22.95;9.68;;;2.70;99.90;;;;;;5033385;28;20480;-48
2024/01/14 07:49:48;;;;;;;25.10;9.32;;;2.70;99.90;;;;;;5030368;28;20072;-49
2024/01/14 07:52:14;;;;;;;24.85;11.00;;;2.70;99.90;;;;;;5017108;28;20036;-55
2024/01/14 07:54:40;;;;;;;26.55;10.50;;;2.70;99.90;;;;;;5030429;28;20075;-52
2024/01/14 07:57:06;;;;;;;22.17;10.05;;;2.70;99.90;;;;;;5015382;28;20029;-51
2024/01/14 07:59:31;;;;;;;23.45;9.95;;;2.80;99.90;;;;;;5028797;28;20125;-50
2024/01/14 08:01:57;;;;;;;21.45;10.02;;;2.70;99.90;;;;;;5029991;28;20040;-54
2024/01/14 08:04:23;;;;;;;22.63;9.68;;;2.70;99.90;;;;;;5030356;28;20045;-51
2024/01/14 08:06:48;;;;;;;23.70;9.48;;;2.80;99.90;;;;;;5030060;28;20033;-49
2024/01/14 08:09:14;;;;;;;24.10;10.68;;;2.70;99.90;;;;;;5029975;28;20460;-49
2024/01/14 08:11:40;;;;;;;28.90;11.32;;;2.70;99.90;;;;;;5030556;28;20021;-49
2024/01/14 08:14:05;;;;;;;24.17;10.65;;;2.80;99.90;;;;;;5030438;28;20029;-50
2024/01/14 08:16:31;;;;;;;29.85;13.30;;;2.70;99.90;;;;;;5030462;28;20018;-48
2024/01/14 08:18:57;;;;;;;30.85;12.45;;;2.80;99.90;;;;;;5030640;28;20021;-54
2024/01/14 08:21:22;;;;;;;35.38;15.20;;;2.80;99.90;;;;;;5047226;28;20084;-52
2024/01/14 08:23:48;;;;;;;33.80;14.80;;;2.80;99.90;;;;;;5050459;28;20415;-50
2024/01/14 08:26:14;;;;;;;29.48;12.40;;;2.80;99.90;;;;;;5050246;28;20024;-46
2024/01/14 08:28:39;;;;;;;28.13;13.20;;;2.90;99.90;;;;;;5050282;28;20432;-50
2024/01/14 08:31:05;;;;;;;37.45;15.32;;;2.90;99.90;;;;;;5050199;28;20025;-48
2024/01/14 08:33:30;;;;;;;27.42;11.10;;;2.90;99.90;;;;;;5048546;28;20025;-50
2024/01/14 08:35:56;;;;;;;31.13;13.38;;;2.90;99.90;;;;;;5049936;28;20376;-50
2024/01/14 08:38:23;;;;;;;36.40;14.30;;;2.90;99.90;;;;;;5047651;28;20468;-46
2024/01/14 08:40:50;;;;;;;44.30;16.77;;;3.00;99.90;;;;;;5025710;28;20087;-49
2024/01/14 08:43:15;;;;;;;44.00;17.50;;;3.00;99.90;;;;;;5024930;28;20036;-48
2024/01/14 08:45:41;;;;;;;37.13;15.80;;;3.00;99.90;;;;;;5029900;28;20021;-46
2024/01/14 08:48:07;;;;;;;25.67;12.75;;;3.00;99.90;;;;;;5029806;28;20089;-51
2024/01/14 08:50:32;;;;;;;25.08;11.10;;;3.00;99.90;;;;;;5029453;28;20043;-47
2024/01/14 08:52:58;;;;;;;22.70;9.40;;;3.10;99.90;;;;;;5021095;28;20487;-52
2024/01/14 08:55:24;;;;;;;23.55;10.98;;;3.10;99.90;;;;;;5029673;28;20129;-54
2024/01/14 08:57:50;;;;;;;28.05;11.23;;;3.10;99.90;;;;;;5029631;28;20013;-48
2024/01/14 09:00:16;;;;;;;41.35;14.30;;;3.20;99.90;;;;;;5029583;28;20053;-54
2024/01/14 09:02:41;;;;;;;38.70;15.25;;;3.20;99.90;;;;;;5029645;28;20038;-49
2024/01/14 09:05:07;;;;;;;37.97;14.23;;;3.20;99.90;;;;;;5020909;28;20104;-48
2024/01/14 09:07:36;;;;;;;26.92;11.25;;;3.30;99.90;;;;;;5025180;28;20030;-50
2024/01/14 09:10:02;;;;;;;26.10;10.30;;;3.30;99.90;;;;;;5021582;28;20499;-52
2024/01/14 09:12:28;;;;;;;25.42;11.93;;;3.30;99.90;;;;;;5029367;28;20532;-49
2024/01/14 09:14:54;;;;;;;29.27;10.85;;;3.30;99.90;;;;;;5029086;28;20018;-52
2024/01/14 09:17:20;;;;;;;24.33;9.75;;;3.30;99.90;;;;;;5029135;28;20037;-50
2024/01/14 09:19:45;;;;;;;24.90;10.68;;;3.40;99.90;;;;;;5029470;28;20036;-47
2024/01/14 09:22:11;;;;;;;25.77;10.88;;;3.40;99.90;;;;;;5032097;28;20388;-51
2024/01/14 09:24:42;;;;;;;24.88;10.40;;;3.50;99.90;;;;;;5032972;28;20026;-49
2024/01/14 09:27:08;;;;;;;26.90;10.93;;;3.50;99.90;;;;;;5032831;28;20373;-48
2024/01/14 09:29:34;;;;;;;27.30;10.38;;;3.50;99.90;;;;;;5032751;28;20499;-52
2024/01/14 09:31:59;;;;;;;25.52;9.85;;;3.50;99.90;;;;;;5031482;28;20021;-52
2024/01/14 09:34:25;;;;;;;22.95;9.90;;;3.60;99.90;;;;;;5032935;28;20021;-46
2024/01/14 09:36:50;;;;;;;25.10;10.50;;;3.70;99.90;;;;;;5031470;28;20037;-56
2024/01/14 09:39:16;;;;;;;26.95;10.27;;;3.80;99.90;;;;;;5032616;28;20036;-51
2024/01/14 09:41:44;;;;;;;26.17;11.32;;;4.00;99.90;;;;;;5032452;28;20112;-52
2024/01/14 09:44:15;;;;;;;25.73;11.35;;;4.10;99.90;;;;;;5032536;28;20547;-48
2024/01/14 09:46:41;;;;;;;24.98;10.68;;;4.20;99.90;;;;;;5032366;28;20324;-52
2024/01/14 09:49:10;;;;;;;27.40;11.35;;;4.20;99.90;;;;;;5032514;28;20068;-49
2024/01/14 09:51:37;;;;;;;25.73;10.98;;;4.40;99.90;;;;;;5032637;28;20052;-49
2024/01/14 09:54:03;;;;;;;32.40;11.52;;;4.50;99.90;;;;;;5030293;28;20014;-51
2024/01/14 09:56:32;;;;;;;30.25;11.90;;;4.60;99.90;;;;;;5032478;28;20032;-49
2024/01/14 09:58:58;;;;;;;28.40;12.70;;;4.80;99.90;;;;;;5032328;28;20538;-55
2024/01/14 10:01:30;;;;;;;25.58;10.93;;;5.00;99.90;;;;;;5029115;28;20034;-50
2024/01/14 10:04:00;;;;;;;22.27;10.45;;;5.00;99.90;;;;;;5032359;28;20021;-52
2024/01/14 10:06:26;;;;;;;;;;;5.00;99.90;;;;;;5032618;28;20018;-46
2024/01/14 10:08:52;;;;;;;26.13;9.90;;;5.00;99.90;;;;;;5032256;28;20007;-53
2024/01/14 10:11:17;;;;;;;32.05;13.57;;;5.00;99.90;;;;;;5025924;28;20157;-48
2024/01/14 10:13:43;;;;;;;27.98;12.45;;;5.10;99.90;;;;;;5032044;28;20045;-47
2024/01/14 10:16:12;;;;;;;31.33;12.60;;;5.50;99.90;;;;;;5032302;28;20440;-50
2024/01/14 10:18:37;;;;;;;25.35;12.02;;;6.10;99.90;;;;;;5030886;28;20061;-51
2024/01/14 10:21:04;;;;;;;28.42;12.30;;;7.70;99.90;;;;;;5045742;28;20055;-51
2024/01/14 10:23:31;;;;;;;23.25;9.93;;;9.40;99.90;;;;;;5033511;28;20033;-49
2024/01/14 10:26:01;;;;;;;22.48;10.13;;;10.90;99.90;;;;;;5030673;28;20529;-48
2024/01/14 10:28:45;;;;;;;22.52;9.70;;;11.10;99.90;;;;;;5030630;28;20044;-48
2024/01/14 10:31:11;;;;;;;22.42;10.18;;;10.20;99.90;;;;;;5034483;28;20329;-52
2024/01/14 10:33:37;;;;;;;19.15;9.93;;;9.80;99.90;;;;;;5037077;28;20056;-53
2024/01/14 10:36:11;;;;;;;24.63;9.55;;;9.20;99.90;;;;;;5032706;28;20122;-47
2024/01/14 10:38:37;;;;;;;17.63;7.63;;;8.30;99.90;;;;;;5037211;28;20492;-52
2024/01/14 10:41:03;;;;;;;19.95;8.93;;;7.90;99.90;;;;;;5036460;28;20106;-46
2024/01/14 10:43:29;;;;;;;21.85;8.90;;;7.60;99.90;;;;;;5038987;28;20020;-46
2024/01/14 10:45:57;;;;;;;18.65;8.18;;;7.20;99.90;;;;;;5030794;28;20020;-48
2024/01/14 10:48:27;;;;;;;18.83;9.13;;;7.20;99.90;;;;;;5036323;28;20052;-48
2024/01/14 10:50:57;;;;;;;19.00;8.13;;;8.20;99.90;;;;;;5028651;28;20156;-48
2024/01/14 10:53:24;;;;;;;21.73;8.95;;;8.30;99.90;;;;;;5033940;28;20044;-45
2024/01/14 10:56:05;;;;;;;16.98;7.97;;;8.00;99.90;;;;;;5033437;28;20037;-46
2024/01/14 10:58:35;;;;;;;19.58;8.48;;;8.20;99.90;;;;;;5032105;28;20025;-52
2024/01/14 11:01:04;;;;;;;18.73;8.15;;;8.20;99.90;;;;;;5018194;28;20045;-49
2024/01/14 11:03:33;;;;;;;18.30;8.70;;;8.10;99.90;;;;;;5030242;28;20044;-50
2024/01/14 11:05:59;;;;;;;21.55;8.32;;;8.00;99.90;;;;;;5030230;28;20031;-48
2024/01/14 11:08:25;;;;;;;19.70;8.52;;;7.70;99.90;;;;;;5028137;28;20120;-46
2024/01/14 11:10:53;;;;;;;21.88;9.27;;;7.70;99.90;;;;;;5029826;28;20525;-46
2024/01/14 11:13:38;;;;;;;19.23;8.68;;;7.60;99.90;;;;;;5030470;28;20500;-46
2024/01/14 11:16:18;;;;;;;17.58;8.70;;;7.50;99.90;;;;;;5030497;28;20032;-46
2024/01/14 11:18:57;;;;;;;15.68;7.80;;;7.30;99.90;;;;;;5031192;28;20036;-46
2024/01/14 11:21:48;;;;;;;23.70;9.07;;;7.00;99.90;;;;;;5045894;28;20025;-45
2024/01/14 11:24:14;;;;;;;21.38;9.32;;;6.90;99.90;;;;;;5051257;28;20070;-45
2024/01/14 11:26:40;;;;;;;19.02;8.23;;;6.80;99.90;;;;;;5051049;28;20422;-45
2024/01/14 11:29:06;;;;;;;19.77;8.23;;;6.70;99.90;;;;;;5049786;28;20556;-46
2024/01/14 11:32:03;;;;;;;17.98;8.38;;;6.60;99.90;;;;;;5050637;28;20384;-46
2024/01/14 11:34:47;;;;;;;18.45;8.00;;;6.60;99.90;;;;;;5050377;28;20017;-46
2024/01/14 11:37:44;;;;;;;18.50;7.65;;;6.60;99.90;;;;;;5050606;28;20025;-46
2024/01/14 11:40:15;;;;;;;14.57;7.18;;;6.60;99.90;;;;;;5050883;28;20061;-46
2024/01/14 11:42:50;;;;;;;16.45;6.88;;;6.70;99.90;;;;;;5050544;28;20086;-46
2024/01/14 11:45:25;;;;;;;16.85;6.90;;;6.70;99.90;;;;;;5050379;28;20052;-46
2024/01/14 11:47:57;;;;;;;15.73;7.53;;;6.70;99.90;;;;;;5049338;28;20429;-46
2024/01/14 11:50:26;;;;;;;24.75;10.27;;;6.80;99.90;;;;;;5027333;28;20026;-46
2024/01/14 11:52:54;;;;;;;19.70;7.55;;;6.70;99.90;;;;;;5030308;28;20045;-46
2024/01/14 11:55:24;;;;;;;16.52;7.50;;;6.70;99.90;;;;;;5025264;28;20065;-47
2024/01/14 11:57:50;;;;;;;15.30;7.90;;;6.80;99.90;;;;;;5018983;28;20029;-46
2024/01/14 12:00:21;;;;;;;17.60;7.90;;;6.80;99.90;;;;;;5019255;28;20393;-46
2024/01/14 12:03:05;;;;;;;17.48;7.20;;;6.80;99.90;;;;;;5016132;28;20053;-47
2024/01/14 12:05:31;;;;;;;16.05;7.47;;;6.80;99.90;;;;;;5014167;28;20046;-51
2024/01/14 12:07:59;;;;;;;13.82;6.82;;;6.80;99.90;;;;;;5029472;28;20471;-47
2024/01/14 12:10:24;;;;;;;15.02;6.68;;;7.00;99.90;;;;;;5033892;28;20021;-50
2024/01/14 12:12:50;;;;;;;13.52;6.75;;;8.30;99.90;;;;;;5049907;28;20029;-47
2024/01/14 12:15:16;;;;;;;15.88;6.75;;;8.90;99.90;;;;;;5017252;28;20092;-51
2024/01/14 12:17:58;;;;;;;13.50;6.50;;;9.00;99.90;;;;;;5030091;28;20033;-47
2024/01/14 12:20:25;;;;;;;11.38;5.53;;;8.70;99.90;;;;;;5036014;28;20021;-49
2024/01/14 12:23:04;;;;;;;11.73;5.45;;;8.20;99.90;;;;;;5035028;28;20027;-52
2024/01/14 12:25:31;;;;;;;11.13;5.43;;;7.90;99.90;;;;;;5019150;28;20100;-53
2024/01/14 12:27:57;;;;;;;13.23;5.85;;;7.60;99.90;;;;;;5027239;28;20051;-47
2024/01/14 12:30:34;;;;;;;14.93;6.65;;;7.40;99.90;;;;;;5024101;28;20067;-51
2024/01/14 12:33:05;;;;;;;12.60;5.72;;;7.40;99.90;;;;;;5036873;28;20032;-48
2024/01/14 12:35:35;;;;;;;12.98;5.93;;;7.40;99.90;;;;;;5031813;28;20132;-50
2024/01/14 12:38:02;;;;;;;11.00;5.40;;;7.40;99.90;;;;;;5029840;28;20048;-49
2024/01/14 12:40:28;;;;;;;15.05;6.82;;;7.40;99.90;;;;;;5028022;28;20038;-50
2024/01/14 12:42:54;;;;;;;9.93;4.97;;;7.40;99.90;;;;;;5031238;28;20032;-47